sensor_id;sensor_type;location;lat;lon;timestamp;P1;durP1;ratioP1;P2;durP2;ratioP2
55114;SDS011;41010;53.252;5.786;2024-02-21T00:00:32;31.35;;;3.92;;
55114;SDS011;41010;53.252;5.786;2024-02-21T00:02:59;17.90;;;2.60;;
55114;SDS011;41010;53.252;5.786;2024-02-21T00:05:27;31.92;;;3.10;;
55114;SDS011;41010;53.252;5.786;2024-02-21T00:07:54;25.75;;;3.97;;
55114;SDS011;41010;53.252;5.786;2024-02-21T00:10:21;23.92;;;2.83;;
55114;SDS011;41010;53.252;5.786;2024-02-21T00:12:52;37.33;;;4.05;;
55114;SDS011;41010;53.252;5.786;2024-02-21T00:15:19;33.45;;;3.53;;
55114;SDS011;41010;53.252;5.786;2024-02-21T00:17:46;23.60;;;3.25;;
55114;SDS011;41010;53.252;5.786;2024-02-21T00:20:14;24.73;;;3.65;;
55114;SDS011;41010;53.252;5.786;2024-02-21T00:22:41;32.85;;;3.13;;
55114;SDS011;41010;53.252;5.786;2024-02-21T00:25:08;29.65;;;4.47;;
55114;SDS011;41010;53.252;5.786;2024-02-21T00:27:35;28.75;;;4.20;;
55114;SDS011;41010;53.252;5.786;2024-02-21T00:30:04;21.05;;;3.25;;
55114;SDS011;41010;53.252;5.786;2024-02-21T00:32:32;26.13;;;4.07;;
55114;SDS011;41010;53.252;5.786;2024-02-21T00:35:00;29.23;;;4.40;;
55114;SDS011;41010;53.252;5.786;2024-02-21T00:37:27;30.52;;;3.65;;
55114;SDS011;41010;53.252;5.786;2024-02-21T00:39:54;32.13;;;3.67;;
55114;SDS011;41010;53.252;5.786;2024-02-21T00:42:21;27.20;;;3.95;;
55114;SDS011;41010;53.252;5.786;2024-02-21T00:44:49;23.00;;;3.17;;
55114;SDS011;41010;53.252;5.786;2024-02-21T00:47:17;31.73;;;3.83;;
55114;SDS011;41010;53.252;5.786;2024-02-21T00:49:45;28.02;;;4.70;;
55114;SDS011;41010;53.252;5.786;2024-02-21T00:52:12;26.38;;;4.22;;
55114;SDS011;41010;53.252;5.786;2024-02-21T00:54:39;26.05;;;3.80;;
55114;SDS011;41010;53.252;5.786;2024-02-21T00:57:06;31.00;;;4.57;;
55114;SDS011;41010;53.252;5.786;2024-02-21T00:59:33;34.97;;;4.90;;
55114;SDS011;41010;53.252;5.786;2024-02-21T01:02:01;36.72;;;5.15;;
55114;SDS011;41010;53.252;5.786;2024-02-21T01:04:29;22.92;;;4.80;;
55114;SDS011;41010;53.252;5.786;2024-02-21T01:06:56;42.40;;;5.35;;
55114;SDS011;41010;53.252;5.786;2024-02-21T01:09:24;29.85;;;5.40;;
55114;SDS011;41010;53.252;5.786;2024-02-21T01:11:51;30.80;;;4.20;;
55114;SDS011;41010;53.252;5.786;2024-02-21T01:14:18;37.40;;;5.28;;
55114;SDS011;41010;53.252;5.786;2024-02-21T01:16:46;33.33;;;4.00;;
55114;SDS011;41010;53.252;5.786;2024-02-21T01:19:13;32.45;;;4.45;;
55114;SDS011;41010;53.252;5.786;2024-02-21T01:21:41;31.27;;;4.22;;
55114;SDS011;41010;53.252;5.786;2024-02-21T01:24:09;30.27;;;5.20;;
55114;SDS011;41010;53.252;5.786;2024-02-21T01:26:36;32.50;;;5.07;;
55114;SDS011;41010;53.252;5.786;2024-02-21T01:29:03;35.95;;;5.40;;
55114;SDS011;41010;53.252;5.786;2024-02-21T01:31:30;28.35;;;5.35;;
55114;SDS011;41010;53.252;5.786;2024-02-21T01:33:58;29.13;;;4.53;;
55114;SDS011;41010;53.252;5.786;2024-02-21T01:36:25;40.95;;;5.72;;
55114;SDS011;41010;53.252;5.786;2024-02-21T01:38:53;32.88;;;5.03;;
55114;SDS011;41010;53.252;5.786;2024-02-21T01:41:21;35.55;;;5.03;;
55114;SDS011;41010;53.252;5.786;2024-02-21T01:43:48;24.67;;;3.92;;
55114;SDS011;41010;53.252;5.786;2024-02-21T01:46:15;30.63;;;4.35;;
55114;SDS011;41010;53.252;5.786;2024-02-21T01:48:42;32.53;;;4.65;;
55114;SDS011;41010;53.252;5.786;2024-02-21T01:51:11;27.55;;;3.83;;
55114;SDS011;41010;53.252;5.786;2024-02-21T01:53:40;33.70;;;4.60;;
55114;SDS011;41010;53.252;5.786;2024-02-21T01:56:11;28.67;;;4.90;;
55114;SDS011;41010;53.252;5.786;2024-02-21T01:58:40;34.88;;;4.25;;
55114;SDS011;41010;53.252;5.786;2024-02-21T02:01:07;25.00;;;3.00;;
55114;SDS011;41010;53.252;5.786;2024-02-21T02:03:35;44.75;;;5.55;;
55114;SDS011;41010;53.252;5.786;2024-02-21T02:06:02;26.65;;;4.70;;
55114;SDS011;41010;53.252;5.786;2024-02-21T02:08:29;34.40;;;4.38;;
55114;SDS011;41010;53.252;5.786;2024-02-21T02:10:58;36.03;;;5.35;;
55114;SDS011;41010;53.252;5.786;2024-02-21T02:13:27;37.33;;;3.78;;
55114;SDS011;41010;53.252;5.786;2024-02-21T02:15:54;37.38;;;4.85;;
55114;SDS011;41010;53.252;5.786;2024-02-21T02:18:22;29.67;;;4.25;;
55114;SDS011;41010;53.252;5.786;2024-02-21T02:20:49;26.27;;;3.72;;
55114;SDS011;41010;53.252;5.786;2024-02-21T02:23:20;29.73;;;4.70;;
55114;SDS011;41010;53.252;5.786;2024-02-21T02:25:48;30.90;;;4.43;;
55114;SDS011;41010;53.252;5.786;2024-02-21T02:28:17;32.35;;;3.97;;
55114;SDS011;41010;53.252;5.786;2024-02-21T02:30:45;28.80;;;5.00;;
55114;SDS011;41010;53.252;5.786;2024-02-21T02:33:12;33.08;;;4.22;;
55114;SDS011;41010;53.252;5.786;2024-02-21T02:35:39;31.05;;;4.10;;
55114;SDS011;41010;53.252;5.786;2024-02-21T02:38:07;36.47;;;4.53;;
55114;SDS011;41010;53.252;5.786;2024-02-21T02:40:37;29.25;;;3.28;;
55114;SDS011;41010;53.252;5.786;2024-02-21T02:43:05;34.03;;;4.25;;
55114;SDS011;41010;53.252;5.786;2024-02-21T02:45:32;35.35;;;4.38;;
55114;SDS011;41010;53.252;5.786;2024-02-21T02:48:00;33.85;;;4.20;;
55114;SDS011;41010;53.252;5.786;2024-02-21T02:50:27;30.17;;;3.38;;
55114;SDS011;41010;53.252;5.786;2024-02-21T02:52:55;33.60;;;3.65;;
55114;SDS011;41010;53.252;5.786;2024-02-21T02:55:22;41.78;;;4.38;;
55114;SDS011;41010;53.252;5.786;2024-02-21T02:57:50;33.03;;;4.50;;
55114;SDS011;41010;53.252;5.786;2024-02-21T03:00:18;36.85;;;3.88;;
55114;SDS011;41010;53.252;5.786;2024-02-21T03:02:46;32.15;;;4.25;;
55114;SDS011;41010;53.252;5.786;2024-02-21T03:05:17;35.13;;;4.95;;
55114;SDS011;41010;53.252;5.786;2024-02-21T03:07:44;43.22;;;5.65;;
55114;SDS011;41010;53.252;5.786;2024-02-21T03:10:12;39.95;;;4.75;;
55114;SDS011;41010;53.252;5.786;2024-02-21T03:12:41;43.65;;;4.53;;
55114;SDS011;41010;53.252;5.786;2024-02-21T03:15:11;29.67;;;3.78;;
55114;SDS011;41010;53.252;5.786;2024-02-21T03:17:41;29.95;;;4.00;;
55114;SDS011;41010;53.252;5.786;2024-02-21T03:20:08;35.42;;;5.07;;
55114;SDS011;41010;53.252;5.786;2024-02-21T03:22:36;33.33;;;6.35;;
55114;SDS011;41010;53.252;5.786;2024-02-21T03:25:03;32.22;;;4.53;;
55114;SDS011;41010;53.252;5.786;2024-02-21T03:27:31;37.15;;;3.88;;
55114;SDS011;41010;53.252;5.786;2024-02-21T03:29:58;34.17;;;4.10;;
55114;SDS011;41010;53.252;5.786;2024-02-21T03:32:27;33.08;;;3.85;;
55114;SDS011;41010;53.252;5.786;2024-02-21T03:34:54;27.35;;;3.55;;
55114;SDS011;41010;53.252;5.786;2024-02-21T03:37:22;34.25;;;4.30;;
55114;SDS011;41010;53.252;5.786;2024-02-21T03:39:49;39.40;;;4.00;;
55114;SDS011;41010;53.252;5.786;2024-02-21T03:42:17;31.02;;;3.60;;
55114;SDS011;41010;53.252;5.786;2024-02-21T03:44:44;28.48;;;4.32;;
55114;SDS011;41010;53.252;5.786;2024-02-21T03:47:11;32.25;;;4.15;;
55114;SDS011;41010;53.252;5.786;2024-02-21T03:49:40;41.78;;;5.85;;
55114;SDS011;41010;53.252;5.786;2024-02-21T03:52:08;34.40;;;4.63;;
55114;SDS011;41010;53.252;5.786;2024-02-21T03:54:35;27.98;;;3.47;;
55114;SDS011;41010;53.252;5.786;2024-02-21T03:57:04;29.90;;;4.05;;
55114;SDS011;41010;53.252;5.786;2024-02-21T03:59:31;41.72;;;5.55;;
55114;SDS011;41010;53.252;5.786;2024-02-21T04:01:58;39.30;;;4.95;;
55114;SDS011;41010;53.252;5.786;2024-02-21T04:04:26;36.25;;;3.92;;
55114;SDS011;41010;53.252;5.786;2024-02-21T04:06:54;27.23;;;3.00;;
55114;SDS011;41010;53.252;5.786;2024-02-21T04:09:22;35.00;;;3.75;;
55114;SDS011;41010;53.252;5.786;2024-02-21T04:11:49;28.80;;;3.35;;
55114;SDS011;41010;53.252;5.786;2024-02-21T04:14:17;27.58;;;4.10;;
55114;SDS011;41010;53.252;5.786;2024-02-21T04:16:44;28.02;;;3.60;;
55114;SDS011;41010;53.252;5.786;2024-02-21T04:19:11;22.00;;;4.55;;
55114;SDS011;41010;53.252;5.786;2024-02-21T04:21:38;27.35;;;3.70;;
55114;SDS011;41010;53.252;5.786;2024-02-21T04:24:07;36.65;;;4.10;;
55114;SDS011;41010;53.252;5.786;2024-02-21T04:26:34;33.00;;;3.88;;
55114;SDS011;41010;53.252;5.786;2024-02-21T04:29:02;34.97;;;4.93;;
55114;SDS011;41010;53.252;5.786;2024-02-21T04:31:29;36.05;;;4.88;;
55114;SDS011;41010;53.252;5.786;2024-02-21T04:33:59;23.83;;;3.17;;
55114;SDS011;41010;53.252;5.786;2024-02-21T04:36:28;33.03;;;3.50;;
55114;SDS011;41010;53.252;5.786;2024-02-21T04:38:55;28.70;;;4.25;;
55114;SDS011;41010;53.252;5.786;2024-02-21T04:41:23;25.90;;;3.17;;
55114;SDS011;41010;53.252;5.786;2024-02-21T04:43:51;21.67;;;3.35;;
55114;SDS011;41010;53.252;5.786;2024-02-21T04:46:18;22.38;;;3.25;;
55114;SDS011;41010;53.252;5.786;2024-02-21T04:48:45;23.08;;;3.20;;
55114;SDS011;41010;53.252;5.786;2024-02-21T04:51:12;29.40;;;3.30;;
55114;SDS011;41010;53.252;5.786;2024-02-21T04:53:40;26.83;;;3.30;;
55114;SDS011;41010;53.252;5.786;2024-02-21T04:56:07;33.13;;;3.22;;
55114;SDS011;41010;53.252;5.786;2024-02-21T04:58:38;20.23;;;2.90;;
55114;SDS011;41010;53.252;5.786;2024-02-21T05:01:06;23.40;;;3.17;;
55114;SDS011;41010;53.252;5.786;2024-02-21T05:03:33;33.22;;;3.80;;
55114;SDS011;41010;53.252;5.786;2024-02-21T05:06:01;25.48;;;3.50;;
55114;SDS011;41010;53.252;5.786;2024-02-21T05:08:28;28.42;;;3.60;;
55114;SDS011;41010;53.252;5.786;2024-02-21T05:10:55;30.17;;;3.47;;
55114;SDS011;41010;53.252;5.786;2024-02-21T05:13:22;27.05;;;4.53;;
55114;SDS011;41010;53.252;5.786;2024-02-21T05:15:52;33.20;;;4.35;;
55114;SDS011;41010;53.252;5.786;2024-02-21T05:18:19;29.73;;;5.22;;
55114;SDS011;41010;53.252;5.786;2024-02-21T05:20:46;26.52;;;3.38;;
55114;SDS011;41010;53.252;5.786;2024-02-21T05:23:14;35.42;;;4.20;;
55114;SDS011;41010;53.252;5.786;2024-02-21T05:25:41;35.58;;;4.15;;
55114;SDS011;41010;53.252;5.786;2024-02-21T05:28:08;28.00;;;4.07;;
55114;SDS011;41010;53.252;5.786;2024-02-21T05:30:35;37.58;;;5.07;;
55114;SDS011;41010;53.252;5.786;2024-02-21T05:33:07;24.15;;;3.20;;
55114;SDS011;41010;53.252;5.786;2024-02-21T05:35:34;29.27;;;3.45;;
55114;SDS011;41010;53.252;5.786;2024-02-21T05:38:02;30.27;;;5.03;;
55114;SDS011;41010;53.252;5.786;2024-02-21T05:40:31;28.42;;;3.92;;
55114;SDS011;41010;53.252;5.786;2024-02-21T05:42:59;32.05;;;3.63;;
55114;SDS011;41010;53.252;5.786;2024-02-21T05:45:26;27.67;;;4.60;;
55114;SDS011;41010;53.252;5.786;2024-02-21T05:47:53;42.47;;;4.45;;
55114;SDS011;41010;53.252;5.786;2024-02-21T05:50:23;31.33;;;4.28;;
55114;SDS011;41010;53.252;5.786;2024-02-21T05:52:52;25.50;;;4.40;;
55114;SDS011;41010;53.252;5.786;2024-02-21T05:55:19;24.65;;;3.95;;
55114;SDS011;41010;53.252;5.786;2024-02-21T05:57:46;32.58;;;3.97;;
55114;SDS011;41010;53.252;5.786;2024-02-21T06:00:14;34.63;;;3.83;;
55114;SDS011;41010;53.252;5.786;2024-02-21T06:02:41;22.58;;;4.40;;
55114;SDS011;41010;53.252;5.786;2024-02-21T06:05:09;31.38;;;4.88;;
55114;SDS011;41010;53.252;5.786;2024-02-21T06:07:38;22.88;;;3.90;;
55114;SDS011;41010;53.252;5.786;2024-02-21T06:10:06;28.95;;;4.00;;
55114;SDS011;41010;53.252;5.786;2024-02-21T06:12:34;31.20;;;4.38;;
55114;SDS011;41010;53.252;5.786;2024-02-21T06:15:01;34.72;;;4.05;;
55114;SDS011;41010;53.252;5.786;2024-02-21T06:17:28;32.13;;;4.00;;
55114;SDS011;41010;53.252;5.786;2024-02-21T06:19:56;22.35;;;3.85;;
55114;SDS011;41010;53.252;5.786;2024-02-21T06:22:23;29.20;;;4.20;;
55114;SDS011;41010;53.252;5.786;2024-02-21T06:24:52;28.90;;;3.90;;
55114;SDS011;41010;53.252;5.786;2024-02-21T06:27:19;30.70;;;3.75;;
55114;SDS011;41010;53.252;5.786;2024-02-21T06:29:47;30.33;;;4.55;;
55114;SDS011;41010;53.252;5.786;2024-02-21T06:32:14;26.83;;;4.25;;
55114;SDS011;41010;53.252;5.786;2024-02-21T06:34:41;30.80;;;4.20;;
55114;SDS011;41010;53.252;5.786;2024-02-21T06:37:08;39.92;;;4.63;;
55114;SDS011;41010;53.252;5.786;2024-02-21T06:39:36;30.75;;;4.35;;
55114;SDS011;41010;53.252;5.786;2024-02-21T06:42:04;25.77;;;4.00;;
55114;SDS011;41010;53.252;5.786;2024-02-21T06:44:32;28.85;;;5.03;;
55114;SDS011;41010;53.252;5.786;2024-02-21T06:47:05;33.75;;;4.20;;
55114;SDS011;41010;53.252;5.786;2024-02-21T06:49:32;26.88;;;4.75;;
55114;SDS011;41010;53.252;5.786;2024-02-21T06:52:00;30.05;;;4.10;;
55114;SDS011;41010;53.252;5.786;2024-02-21T06:54:27;37.78;;;4.60;;
55114;SDS011;41010;53.252;5.786;2024-02-21T06:56:54;30.52;;;4.22;;
55114;SDS011;41010;53.252;5.786;2024-02-21T06:59:23;36.50;;;4.30;;
55114;SDS011;41010;53.252;5.786;2024-02-21T07:01:52;28.27;;;4.63;;
55114;SDS011;41010;53.252;5.786;2024-02-21T07:04:20;36.72;;;4.97;;
55114;SDS011;41010;53.252;5.786;2024-02-21T07:06:47;37.78;;;5.45;;
55114;SDS011;41010;53.252;5.786;2024-02-21T07:09:15;41.60;;;5.10;;
55114;SDS011;41010;53.252;5.786;2024-02-21T07:11:42;42.38;;;6.25;;
55114;SDS011;41010;53.252;5.786;2024-02-21T07:14:09;36.30;;;5.55;;
55114;SDS011;41010;53.252;5.786;2024-02-21T07:16:38;32.60;;;6.15;;
55114;SDS011;41010;53.252;5.786;2024-02-21T07:19:05;56.03;;;7.22;;
55114;SDS011;41010;53.252;5.786;2024-02-21T07:21:32;39.28;;;6.40;;
55114;SDS011;41010;53.252;5.786;2024-02-21T07:24:00;51.53;;;6.60;;
55114;SDS011;41010;53.252;5.786;2024-02-21T07:26:27;49.10;;;6.35;;
55114;SDS011;41010;53.252;5.786;2024-02-21T07:28:55;43.53;;;7.60;;
55114;SDS011;41010;53.252;5.786;2024-02-21T07:31:22;39.30;;;6.90;;
55114;SDS011;41010;53.252;5.786;2024-02-21T07:33:50;45.45;;;8.45;;
55114;SDS011;41010;53.252;5.786;2024-02-21T07:36:25;40.58;;;8.10;;
55114;SDS011;41010;53.252;5.786;2024-02-21T07:38:52;45.95;;;9.35;;
55114;SDS011;41010;53.252;5.786;2024-02-21T07:41:19;44.58;;;7.75;;
55114;SDS011;41010;53.252;5.786;2024-02-21T07:43:46;40.92;;;8.35;;
55114;SDS011;41010;53.252;5.786;2024-02-21T07:46:15;39.58;;;8.10;;
55114;SDS011;41010;53.252;5.786;2024-02-21T07:48:42;35.17;;;8.18;;
55114;SDS011;41010;53.252;5.786;2024-02-21T07:51:11;53.13;;;8.27;;
55114;SDS011;41010;53.252;5.786;2024-02-21T07:53:38;48.67;;;9.70;;
55114;SDS011;41010;53.252;5.786;2024-02-21T07:56:09;54.95;;;9.05;;
55114;SDS011;41010;53.252;5.786;2024-02-21T07:58:36;52.08;;;9.10;;
55114;SDS011;41010;53.252;5.786;2024-02-21T08:01:04;50.67;;;10.35;;
55114;SDS011;41010;53.252;5.786;2024-02-21T08:03:31;51.38;;;9.60;;
55114;SDS011;41010;53.252;5.786;2024-02-21T08:05:58;59.15;;;9.05;;
55114;SDS011;41010;53.252;5.786;2024-02-21T08:08:27;44.17;;;9.60;;
55114;SDS011;41010;53.252;5.786;2024-02-21T08:10:54;52.03;;;10.23;;
55114;SDS011;41010;53.252;5.786;2024-02-21T08:13:21;57.33;;;10.60;;
55114;SDS011;41010;53.252;5.786;2024-02-21T08:15:49;44.25;;;9.65;;
55114;SDS011;41010;53.252;5.786;2024-02-21T08:18:16;45.60;;;10.25;;
55114;SDS011;41010;53.252;5.786;2024-02-21T08:20:43;47.50;;;11.38;;
55114;SDS011;41010;53.252;5.786;2024-02-21T08:23:10;45.22;;;13.45;;
55114;SDS011;41010;53.252;5.786;2024-02-21T08:25:39;36.80;;;11.68;;
55114;SDS011;41010;53.252;5.786;2024-02-21T08:28:06;43.92;;;11.43;;
55114;SDS011;41010;53.252;5.786;2024-02-21T08:30:34;52.67;;;11.60;;
55114;SDS011;41010;53.252;5.786;2024-02-21T08:33:01;39.00;;;9.10;;
55114;SDS011;41010;53.252;5.786;2024-02-21T08:35:29;37.55;;;9.45;;
55114;SDS011;41010;53.252;5.786;2024-02-21T08:37:56;27.67;;;9.35;;
55114;SDS011;41010;53.252;5.786;2024-02-21T08:40:23;34.42;;;7.90;;
55114;SDS011;41010;53.252;5.786;2024-02-21T08:42:52;35.60;;;7.80;;
55114;SDS011;41010;53.252;5.786;2024-02-21T08:45:20;42.78;;;7.25;;
55114;SDS011;41010;53.252;5.786;2024-02-21T08:47:47;27.30;;;6.93;;
55114;SDS011;41010;53.252;5.786;2024-02-21T08:50:14;38.05;;;6.90;;
55114;SDS011;41010;53.252;5.786;2024-02-21T08:52:42;31.10;;;6.57;;
55114;SDS011;41010;53.252;5.786;2024-02-21T08:55:09;25.88;;;6.38;;
55114;SDS011;41010;53.252;5.786;2024-02-21T08:57:36;31.85;;;7.35;;
55114;SDS011;41010;53.252;5.786;2024-02-21T09:00:06;26.77;;;6.85;;
55114;SDS011;41010;53.252;5.786;2024-02-21T09:02:36;26.13;;;7.43;;
55114;SDS011;41010;53.252;5.786;2024-02-21T09:05:04;26.85;;;7.85;;
55114;SDS011;41010;53.252;5.786;2024-02-21T09:07:31;26.13;;;7.57;;
55114;SDS011;41010;53.252;5.786;2024-02-21T09:09:58;26.55;;;8.60;;
55114;SDS011;41010;53.252;5.786;2024-02-21T09:12:26;28.92;;;8.88;;
55114;SDS011;41010;53.252;5.786;2024-02-21T09:14:53;30.20;;;9.50;;
55114;SDS011;41010;53.252;5.786;2024-02-21T09:17:22;29.52;;;10.07;;
55114;SDS011;41010;53.252;5.786;2024-02-21T09:19:50;28.77;;;9.77;;
55114;SDS011;41010;53.252;5.786;2024-02-21T09:22:17;24.35;;;11.63;;
55114;SDS011;41010;53.252;5.786;2024-02-21T09:24:44;26.95;;;12.35;;
55114;SDS011;41010;53.252;5.786;2024-02-21T09:27:12;33.70;;;13.88;;
55114;SDS011;41010;53.252;5.786;2024-02-21T09:29:40;32.90;;;12.30;;
55114;SDS011;41010;53.252;5.786;2024-02-21T09:32:07;31.35;;;11.65;;
55114;SDS011;41010;53.252;5.786;2024-02-21T09:34:36;26.33;;;12.65;;
55114;SDS011;41010;53.252;5.786;2024-02-21T09:37:03;24.23;;;13.05;;
55114;SDS011;41010;53.252;5.786;2024-02-21T09:39:30;31.73;;;12.95;;
55114;SDS011;41010;53.252;5.786;2024-02-21T09:41:58;25.60;;;12.23;;
55114;SDS011;41010;53.252;5.786;2024-02-21T09:44:27;27.77;;;13.25;;
55114;SDS011;41010;53.252;5.786;2024-02-21T09:46:57;37.25;;;12.98;;
55114;SDS011;41010;53.252;5.786;2024-02-21T09:49:29;27.48;;;13.10;;
55114;SDS011;41010;53.252;5.786;2024-02-21T09:52:00;22.63;;;12.93;;
55114;SDS011;41010;53.252;5.786;2024-02-21T09:54:28;18.98;;;12.10;;
55114;SDS011;41010;53.252;5.786;2024-02-21T09:56:56;27.83;;;11.98;;
55114;SDS011;41010;53.252;5.786;2024-02-21T09:59:23;27.73;;;12.88;;
55114;SDS011;41010;53.252;5.786;2024-02-21T10:01:51;22.88;;;13.93;;
55114;SDS011;41010;53.252;5.786;2024-02-21T10:04:19;26.38;;;13.52;;
55114;SDS011;41010;53.252;5.786;2024-02-21T10:06:46;28.23;;;13.32;;
55114;SDS011;41010;53.252;5.786;2024-02-21T10:09:21;32.50;;;13.90;;
55114;SDS011;41010;53.252;5.786;2024-02-21T10:11:49;23.40;;;13.68;;
55114;SDS011;41010;53.252;5.786;2024-02-21T10:14:16;28.27;;;13.35;;
55114;SDS011;41010;53.252;5.786;2024-02-21T10:16:44;31.42;;;13.15;;
55114;SDS011;41010;53.252;5.786;2024-02-21T10:19:18;27.00;;;12.50;;
55114;SDS011;41010;53.252;5.786;2024-02-21T10:21:59;24.77;;;12.98;;
55114;SDS011;41010;53.252;5.786;2024-02-21T10:24:27;25.13;;;12.05;;
55114;SDS011;41010;53.252;5.786;2024-02-21T10:27:01;24.50;;;13.40;;
55114;SDS011;41010;53.252;5.786;2024-02-21T10:29:29;25.23;;;10.73;;
55114;SDS011;41010;53.252;5.786;2024-02-21T10:32:03;20.95;;;11.15;;
55114;SDS011;41010;53.252;5.786;2024-02-21T10:34:31;24.17;;;11.30;;
55114;SDS011;41010;53.252;5.786;2024-02-21T10:37:02;23.08;;;11.00;;
55114;SDS011;41010;53.252;5.786;2024-02-21T10:39:31;25.45;;;11.57;;
55114;SDS011;41010;53.252;5.786;2024-02-21T10:42:00;27.58;;;11.55;;
55114;SDS011;41010;53.252;5.786;2024-02-21T10:44:29;22.60;;;11.55;;
55114;SDS011;41010;53.252;5.786;2024-02-21T10:46:57;22.15;;;11.18;;
55114;SDS011;41010;53.252;5.786;2024-02-21T10:49:24;25.00;;;12.18;;
55114;SDS011;41010;53.252;5.786;2024-02-21T10:51:54;27.63;;;12.90;;
55114;SDS011;41010;53.252;5.786;2024-02-21T10:54:33;24.30;;;11.80;;
55114;SDS011;41010;53.252;5.786;2024-02-21T10:57:04;23.13;;;11.80;;
55114;SDS011;41010;53.252;5.786;2024-02-21T10:59:32;20.30;;;11.38;;
55114;SDS011;41010;53.252;5.786;2024-02-21T11:01:59;21.17;;;11.40;;
55114;SDS011;41010;53.252;5.786;2024-02-21T11:04:26;24.73;;;12.05;;
55114;SDS011;41010;53.252;5.786;2024-02-21T11:06:55;23.27;;;12.57;;
55114;SDS011;41010;53.252;5.786;2024-02-21T11:09:30;25.33;;;12.88;;
55114;SDS011;41010;53.252;5.786;2024-02-21T11:11:58;22.77;;;13.33;;
55114;SDS011;41010;53.252;5.786;2024-02-21T11:14:26;27.38;;;12.70;;
55114;SDS011;41010;53.252;5.786;2024-02-21T11:16:53;24.27;;;12.55;;
55114;SDS011;41010;53.252;5.786;2024-02-21T11:19:22;27.30;;;12.30;;
55114;SDS011;41010;53.252;5.786;2024-02-21T11:21:50;21.00;;;11.75;;
55114;SDS011;41010;53.252;5.786;2024-02-21T11:24:28;20.30;;;11.85;;
55114;SDS011;41010;53.252;5.786;2024-02-21T11:27:07;23.98;;;11.80;;
55114;SDS011;41010;53.252;5.786;2024-02-21T11:29:39;21.85;;;11.90;;
55114;SDS011;41010;53.252;5.786;2024-02-21T11:32:09;23.58;;;13.27;;
55114;SDS011;41010;53.252;5.786;2024-02-21T11:34:36;20.95;;;12.23;;
55114;SDS011;41010;53.252;5.786;2024-02-21T11:37:12;23.67;;;11.73;;
55114;SDS011;41010;53.252;5.786;2024-02-21T11:39:40;23.52;;;11.82;;
55114;SDS011;41010;53.252;5.786;2024-02-21T11:42:09;22.33;;;12.13;;
55114;SDS011;41010;53.252;5.786;2024-02-21T11:44:38;22.08;;;12.90;;
55114;SDS011;41010;53.252;5.786;2024-02-21T11:47:07;27.02;;;13.10;;
55114;SDS011;41010;53.252;5.786;2024-02-21T11:49:36;23.67;;;12.55;;
55114;SDS011;41010;53.252;5.786;2024-02-21T11:52:04;24.48;;;12.63;;
55114;SDS011;41010;53.252;5.786;2024-02-21T11:54:32;23.70;;;14.35;;
55114;SDS011;41010;53.252;5.786;2024-02-21T11:56:59;24.00;;;12.93;;
55114;SDS011;41010;53.252;5.786;2024-02-21T11:59:30;24.17;;;12.60;;
55114;SDS011;41010;53.252;5.786;2024-02-21T12:01:58;21.35;;;11.52;;
55114;SDS011;41010;53.252;5.786;2024-02-21T12:04:25;31.05;;;12.95;;
55114;SDS011;41010;53.252;5.786;2024-02-21T12:06:53;26.42;;;13.00;;
55114;SDS011;41010;53.252;5.786;2024-02-21T12:09:22;24.10;;;12.27;;
55114;SDS011;41010;53.252;5.786;2024-02-21T12:11:56;21.70;;;11.93;;
55114;SDS011;41010;53.252;5.786;2024-02-21T12:14:24;22.95;;;12.95;;
55114;SDS011;41010;53.252;5.786;2024-02-21T12:16:53;24.88;;;12.35;;
55114;SDS011;41010;53.252;5.786;2024-02-21T12:19:20;19.85;;;11.32;;
55114;SDS011;41010;53.252;5.786;2024-02-21T12:21:47;22.30;;;11.43;;
55114;SDS011;41010;53.252;5.786;2024-02-21T12:24:21;19.40;;;12.52;;
55114;SDS011;41010;53.252;5.786;2024-02-21T12:26:49;24.88;;;12.48;;
55114;SDS011;41010;53.252;5.786;2024-02-21T12:29:17;18.38;;;9.93;;
55114;SDS011;41010;53.252;5.786;2024-02-21T12:31:44;22.17;;;11.60;;
55114;SDS011;41010;53.252;5.786;2024-02-21T12:34:14;19.65;;;10.50;;
55114;SDS011;41010;53.252;5.786;2024-02-21T12:36:41;18.58;;;9.93;;
55114;SDS011;41010;53.252;5.786;2024-02-21T12:39:09;20.35;;;10.25;;
55114;SDS011;41010;53.252;5.786;2024-02-21T12:41:36;17.95;;;9.05;;
55114;SDS011;41010;53.252;5.786;2024-02-21T12:44:04;15.70;;;9.10;;
55114;SDS011;41010;53.252;5.786;2024-02-21T12:46:32;14.05;;;8.52;;
55114;SDS011;41010;53.252;5.786;2024-02-21T12:48:59;15.90;;;8.20;;
55114;SDS011;41010;53.252;5.786;2024-02-21T12:51:28;15.55;;;7.97;;
55114;SDS011;41010;53.252;5.786;2024-02-21T12:53:55;15.98;;;7.60;;
55114;SDS011;41010;53.252;5.786;2024-02-21T12:56:22;14.68;;;7.47;;
55114;SDS011;41010;53.252;5.786;2024-02-21T12:58:51;11.85;;;6.15;;
55114;SDS011;41010;53.252;5.786;2024-02-21T13:01:18;9.90;;;6.03;;
55114;SDS011;41010;53.252;5.786;2024-02-21T13:03:46;12.52;;;6.28;;
55114;SDS011;41010;53.252;5.786;2024-02-21T13:06:13;14.05;;;6.50;;
55114;SDS011;41010;53.252;5.786;2024-02-21T13:08:42;13.40;;;6.07;;
55114;SDS011;41010;53.252;5.786;2024-02-21T13:11:09;11.55;;;5.43;;
55114;SDS011;41010;53.252;5.786;2024-02-21T13:13:37;11.70;;;5.75;;
55114;SDS011;41010;53.252;5.786;2024-02-21T13:16:05;13.52;;;6.30;;
55114;SDS011;41010;53.252;5.786;2024-02-21T13:18:32;9.70;;;5.20;;
55114;SDS011;41010;53.252;5.786;2024-02-21T13:20:59;9.18;;;5.30;;
55114;SDS011;41010;53.252;5.786;2024-02-21T13:23:26;11.50;;;5.63;;
55114;SDS011;41010;53.252;5.786;2024-02-21T13:25:55;8.35;;;4.93;;
55114;SDS011;41010;53.252;5.786;2024-02-21T13:28:22;11.05;;;5.43;;
55114;SDS011;41010;53.252;5.786;2024-02-21T13:30:50;13.38;;;5.50;;
55114;SDS011;41010;53.252;5.786;2024-02-21T13:33:17;12.27;;;6.13;;
55114;SDS011;41010;53.252;5.786;2024-02-21T13:35:44;9.52;;;4.93;;
55114;SDS011;41010;53.252;5.786;2024-02-21T13:38:12;13.73;;;5.22;;
55114;SDS011;41010;53.252;5.786;2024-02-21T13:40:39;9.32;;;5.63;;
55114;SDS011;41010;53.252;5.786;2024-02-21T13:43:08;11.45;;;5.80;;
55114;SDS011;41010;53.252;5.786;2024-02-21T13:45:36;9.73;;;5.05;;
55114;SDS011;41010;53.252;5.786;2024-02-21T13:48:04;9.93;;;5.25;;
55114;SDS011;41010;53.252;5.786;2024-02-21T13:50:33;10.35;;;5.47;;
55114;SDS011;41010;53.252;5.786;2024-02-21T13:53:07;11.68;;;5.65;;
55114;SDS011;41010;53.252;5.786;2024-02-21T13:55:35;9.70;;;5.30;;
55114;SDS011;41010;53.252;5.786;2024-02-21T13:58:03;9.15;;;5.25;;
55114;SDS011;41010;53.252;5.786;2024-02-21T14:00:32;7.78;;;5.18;;
55114;SDS011;41010;53.252;5.786;2024-02-21T14:03:01;10.40;;;5.65;;
55114;SDS011;41010;53.252;5.786;2024-02-21T14:05:28;10.40;;;6.13;;
55114;SDS011;41010;53.252;5.786;2024-02-21T14:07:56;11.20;;;5.78;;
55114;SDS011;41010;53.252;5.786;2024-02-21T14:10:23;9.73;;;5.22;;
55114;SDS011;41010;53.252;5.786;2024-02-21T14:12:50;10.60;;;5.47;;
55114;SDS011;41010;53.252;5.786;2024-02-21T14:15:17;10.07;;;5.35;;
55114;SDS011;41010;53.252;5.786;2024-02-21T14:17:46;9.05;;;5.07;;
55114;SDS011;41010;53.252;5.786;2024-02-21T14:20:14;8.73;;;5.35;;
55114;SDS011;41010;53.252;5.786;2024-02-21T14:22:41;10.93;;;5.40;;
55114;SDS011;41010;53.252;5.786;2024-02-21T14:25:08;12.48;;;5.57;;
55114;SDS011;41010;53.252;5.786;2024-02-21T14:27:36;9.40;;;5.40;;
55114;SDS011;41010;53.252;5.786;2024-02-21T14:30:03;7.82;;;5.28;;
55114;SDS011;41010;53.252;5.786;2024-02-21T14:32:31;10.48;;;5.78;;
55114;SDS011;41010;53.252;5.786;2024-02-21T14:34:59;15.63;;;5.20;;